BLY19AB LDDU-EGCC
Flight info
| Callsign | BLY19AB |
|---|---|
| Flight time | 2h 44m |
| Altitude | 36000 |
| Route | AMUGO DCT UVODI DCT UMSON DCT LOS DCT RASUG DCT SOTOV DCT XEBIX DCT USUDO DCT LIRSU DCT ARCKY DCT SPI DCT DENUT L610 LAM UN57 WELIN T420 ELVOS |
| Aircraft | A321/M-SDE3FGHIRWY/LB1 |
Departure
| Time | 2026-05-06 08:05 |
|---|---|
| Airport | Dubrovnik Ruđer Bošković Airport (LDDU) |
Arrival
| Time | 2026-05-06 10:50 |
|---|---|
| Airport | Manchester Airport (EGCC) |
| Time | Latitude | Longitude | Altitude | Speed | Heading |
|---|---|---|---|---|---|
| 2026-05-06 07:40 | 42.56088 | 18.26302 | 534 ft | 0 kts | 208° |
| 2026-05-06 07:55 | 42.56092 | 18.26306 | 534 ft | 4 kts | 208° |
| 2026-05-06 07:56 | 42.56115 | 18.26322 | 534 ft | 3 kts | 208° |
| 2026-05-06 07:56 | 42.56132 | 18.26337 | 534 ft | 4 kts | 246° |
| 2026-05-06 07:56 | 42.56131 | 18.26366 | 534 ft | 3 kts | 298° |
| 2026-05-06 07:56 | 42.56121 | 18.26393 | 534 ft | 1 kts | 298° |
| 2026-05-06 07:57 | 42.56120 | 18.26393 | 534 ft | 0 kts | 298° |
| 2026-05-06 07:59 | 42.56124 | 18.26384 | 534 ft | 2 kts | 298° |
| 2026-05-06 07:59 | 42.56136 | 18.26353 | 534 ft | 5 kts | 298° |
| 2026-05-06 07:59 | 42.56158 | 18.26298 | 534 ft | 8 kts | 298° |
| 2026-05-06 08:00 | 42.56189 | 18.26220 | 534 ft | 11 kts | 298° |
| 2026-05-06 08:00 | 42.56227 | 18.26123 | 534 ft | 13 kts | 298° |
| 2026-05-06 08:00 | 42.56273 | 18.26007 | 534 ft | 15 kts | 298° |
| 2026-05-06 08:00 | 42.56328 | 18.25869 | 534 ft | 18 kts | 298° |
| 2026-05-06 08:01 | 42.56389 | 18.25712 | 534 ft | 20 kts | 298° |
| 2026-05-06 08:01 | 42.56459 | 18.25538 | 534 ft | 22 kts | 299° |
| 2026-05-06 08:01 | 42.56521 | 18.25385 | 534 ft | 12 kts | 298° |
| 2026-05-06 08:01 | 42.56550 | 18.25313 | 533 ft | 4 kts | 298° |
| 2026-05-06 08:02 | 42.56554 | 18.25302 | 533 ft | 2 kts | 298° |
| 2026-05-06 08:02 | 42.56567 | 18.25271 | 533 ft | 5 kts | 298° |
| 2026-05-06 08:02 | 42.56588 | 18.25216 | 533 ft | 8 kts | 298° |
| 2026-05-06 08:02 | 42.56618 | 18.25141 | 534 ft | 10 kts | 298° |
| 2026-05-06 08:03 | 42.56655 | 18.25046 | 533 ft | 13 kts | 298° |
| 2026-05-06 08:03 | 42.56702 | 18.24928 | 533 ft | 15 kts | 298° |
| 2026-05-06 08:03 | 42.56756 | 18.24791 | 534 ft | 18 kts | 298° |
| 2026-05-06 08:03 | 42.56837 | 18.24680 | 533 ft | 16 kts | 346° |
| 2026-05-06 08:04 | 42.56927 | 18.24737 | 533 ft | 16 kts | 65° |
| 2026-05-06 08:04 | 42.56926 | 18.24830 | 533 ft | 4 kts | 109° |
| 2026-05-06 08:04 | 42.56921 | 18.24844 | 533 ft | 0 kts | 116° |
| 2026-05-06 08:04 | 42.56884 | 18.24938 | 533 ft | 40 kts | 119° |
| 2026-05-06 08:05 | 42.56651 | 18.25526 | 534 ft | 102 kts | 118° |
| 2026-05-06 08:05 | 42.56229 | 18.26591 | 535 ft | 153 kts | 118° |
| 2026-05-06 08:05 | 42.55702 | 18.27948 | 962 ft | 163 kts | 120° |
| 2026-05-06 08:05 | 42.55181 | 18.29329 | 1683 ft | 166 kts | 121° |
| 2026-05-06 08:06 | 42.54647 | 18.30729 | 2364 ft | 169 kts | 121° |
| 2026-05-06 08:06 | 42.54065 | 18.32187 | 2629 ft | 186 kts | 122° |
| 2026-05-06 08:06 | 42.53147 | 18.33454 | 2868 ft | 196 kts | 158° |
| 2026-05-06 08:06 | 42.51787 | 18.33431 | 3243 ft | 207 kts | 201° |
| 2026-05-06 08:07 | 42.50694 | 18.32136 | 3748 ft | 217 kts | 223° |
| 2026-05-06 08:07 | 42.49537 | 18.30897 | 4262 ft | 212 kts | 200° |
| 2026-05-06 08:07 | 42.48141 | 18.30298 | 4794 ft | 211 kts | 191° |
| 2026-05-06 08:07 | 42.46701 | 18.29903 | 5328 ft | 211 kts | 188° |
| 2026-05-06 08:08 | 42.45254 | 18.29539 | 5823 ft | 214 kts | 189° |
| 2026-05-06 08:08 | 42.43797 | 18.29156 | 6374 ft | 213 kts | 190° |
| 2026-05-06 08:08 | 42.42334 | 18.28749 | 6825 ft | 217 kts | 191° |
| 2026-05-06 08:08 | 42.40850 | 18.28257 | 7218 ft | 223 kts | 201° |
| 2026-05-06 08:09 | 42.39662 | 18.26978 | 7687 ft | 227 kts | 234° |
| 2026-05-06 08:09 | 42.39175 | 18.24918 | 7986 ft | 243 kts | 268° |
| 2026-05-06 08:09 | 42.39561 | 18.22577 | 8105 ft | 268 kts | 284° |
| 2026-05-06 08:09 | 42.40143 | 18.20103 | 8380 ft | 282 kts | 285° |
| 2026-05-06 08:10 | 42.40757 | 18.17562 | 8921 ft | 285 kts | 285° |
| 2026-05-06 08:10 | 42.41376 | 18.15003 | 9523 ft | 287 kts | 285° |
| 2026-05-06 08:10 | 42.41991 | 18.12433 | 10111 ft | 289 kts | 286° |
| 2026-05-06 08:10 | 42.42617 | 18.09775 | 10306 ft | 305 kts | 286° |
| 2026-05-06 08:11 | 42.43260 | 18.07006 | 10431 ft | 321 kts | 286° |
| 2026-05-06 08:11 | 42.43946 | 18.04042 | 10555 ft | 337 kts | 286° |
| 2026-05-06 08:11 | 42.44661 | 18.00951 | 10759 ft | 349 kts | 285° |
| 2026-05-06 08:11 | 42.45391 | 17.97794 | 11203 ft | 353 kts | 285° |
| 2026-05-06 08:12 | 42.46128 | 17.94610 | 11689 ft | 355 kts | 285° |
| 2026-05-06 08:12 | 42.46870 | 17.91414 | 12271 ft | 355 kts | 284° |
| 2026-05-06 08:12 | 42.47605 | 17.88229 | 12851 ft | 355 kts | 284° |
| 2026-05-06 08:12 | 42.48340 | 17.85022 | 13336 ft | 358 kts | 284° |
| 2026-05-06 08:13 | 42.49078 | 17.81789 | 13762 ft | 362 kts | 285° |
| 2026-05-06 08:13 | 42.49816 | 17.78567 | 14242 ft | 362 kts | 285° |
| 2026-05-06 08:13 | 42.50567 | 17.75293 | 14638 ft | 366 kts | 285° |
| 2026-05-06 08:13 | 42.51324 | 17.71996 | 15088 ft | 367 kts | 285° |
| 2026-05-06 08:14 | 42.52082 | 17.68673 | 15464 ft | 371 kts | 284° |
| 2026-05-06 08:14 | 42.52840 | 17.65334 | 15968 ft | 371 kts | 285° |
| 2026-05-06 08:14 | 42.53600 | 17.61977 | 16364 ft | 374 kts | 285° |
| 2026-05-06 08:14 | 42.54541 | 17.58680 | 16806 ft | 377 kts | 294° |
| 2026-05-06 08:15 | 42.55924 | 17.55645 | 17290 ft | 380 kts | 304° |
| 2026-05-06 08:15 | 42.57503 | 17.52816 | 17709 ft | 382 kts | 304° |
| 2026-05-06 08:15 | 42.59106 | 17.49931 | 18116 ft | 384 kts | 304° |
| 2026-05-06 08:15 | 42.60709 | 17.47028 | 18477 ft | 385 kts | 304° |
| 2026-05-06 08:16 | 42.62318 | 17.44106 | 18809 ft | 387 kts | 304° |
| 2026-05-06 08:16 | 42.63930 | 17.41169 | 19151 ft | 389 kts | 304° |
| 2026-05-06 08:16 | 42.65548 | 17.38220 | 19492 ft | 391 kts | 303° |
| 2026-05-06 08:16 | 42.67175 | 17.35254 | 19802 ft | 393 kts | 303° |
| 2026-05-06 08:17 | 42.68814 | 17.32269 | 20129 ft | 394 kts | 304° |
| 2026-05-06 08:17 | 42.70455 | 17.29275 | 20459 ft | 396 kts | 304° |
| 2026-05-06 08:17 | 42.72082 | 17.26304 | 20772 ft | 398 kts | 304° |
| 2026-05-06 08:17 | 42.73738 | 17.23272 | 21071 ft | 400 kts | 304° |
| 2026-05-06 08:18 | 42.75402 | 17.20225 | 21397 ft | 402 kts | 304° |
| 2026-05-06 08:18 | 42.77074 | 17.17168 | 21715 ft | 404 kts | 304° |
| 2026-05-06 08:18 | 42.78754 | 17.14092 | 22033 ft | 406 kts | 304° |
| 2026-05-06 08:18 | 42.80439 | 17.10998 | 22338 ft | 407 kts | 304° |
| 2026-05-06 08:19 | 42.82129 | 17.07893 | 22656 ft | 409 kts | 304° |
| 2026-05-06 08:19 | 42.83826 | 17.04775 | 22949 ft | 411 kts | 304° |
| 2026-05-06 08:19 | 42.85531 | 17.01634 | 23245 ft | 413 kts | 304° |
| 2026-05-06 08:19 | 42.87216 | 16.98525 | 23553 ft | 414 kts | 304° |
| 2026-05-06 08:20 | 42.88929 | 16.95365 | 23819 ft | 415 kts | 304° |
| 2026-05-06 08:20 | 42.90653 | 16.92191 | 24075 ft | 417 kts | 304° |
| 2026-05-06 08:20 | 42.92380 | 16.89005 | 24315 ft | 418 kts | 304° |
| 2026-05-06 08:20 | 42.94112 | 16.85804 | 24565 ft | 420 kts | 303° |
| 2026-05-06 08:21 | 42.95843 | 16.82594 | 24818 ft | 421 kts | 303° |
| 2026-05-06 08:21 | 42.97582 | 16.79365 | 25074 ft | 422 kts | 303° |
| 2026-05-06 08:21 | 42.99322 | 16.76130 | 25317 ft | 424 kts | 303° |
| 2026-05-06 08:21 | 43.01071 | 16.72880 | 25536 ft | 425 kts | 303° |
| 2026-05-06 08:22 | 43.02802 | 16.69663 | 25799 ft | 427 kts | 303° |
| 2026-05-06 08:22 | 43.04563 | 16.66391 | 26056 ft | 428 kts | 303° |
| 2026-05-06 08:22 | 43.06325 | 16.63105 | 26284 ft | 429 kts | 303° |
| 2026-05-06 08:22 | 43.08087 | 16.59805 | 26503 ft | 431 kts | 303° |
| 2026-05-06 08:23 | 43.09857 | 16.56490 | 26740 ft | 432 kts | 303° |
| 2026-05-06 08:23 | 43.11633 | 16.53165 | 26968 ft | 433 kts | 303° |
| 2026-05-06 08:23 | 43.13414 | 16.49835 | 27179 ft | 435 kts | 303° |
| 2026-05-06 08:23 | 43.15207 | 16.46487 | 27388 ft | 436 kts | 303° |
| 2026-05-06 08:24 | 43.17000 | 16.43128 | 27604 ft | 438 kts | 303° |
| 2026-05-06 08:24 | 43.18774 | 16.39796 | 27809 ft | 439 kts | 303° |
| 2026-05-06 08:24 | 43.20570 | 16.36411 | 28010 ft | 440 kts | 303° |
| 2026-05-06 08:24 | 43.22371 | 16.33009 | 28204 ft | 441 kts | 302° |
| 2026-05-06 08:25 | 43.24175 | 16.29598 | 28365 ft | 443 kts | 302° |
| 2026-05-06 08:25 | 43.25986 | 16.26172 | 28536 ft | 444 kts | 302° |
| 2026-05-06 08:25 | 43.27802 | 16.22734 | 28733 ft | 445 kts | 302° |
| 2026-05-06 08:25 | 43.29615 | 16.19299 | 28963 ft | 444 kts | 302° |
| 2026-05-06 08:26 | 43.31429 | 16.15863 | 29204 ft | 444 kts | 302° |
| 2026-05-06 08:26 | 43.33240 | 16.12433 | 29444 ft | 444 kts | 302° |
| 2026-05-06 08:26 | 43.35025 | 16.09053 | 29685 ft | 443 kts | 302° |
| 2026-05-06 08:26 | 43.36831 | 16.05625 | 29929 ft | 442 kts | 302° |
| 2026-05-06 08:27 | 43.38630 | 16.02204 | 30167 ft | 441 kts | 302° |
| 2026-05-06 08:27 | 43.40426 | 15.98780 | 30374 ft | 441 kts | 302° |
| 2026-05-06 08:27 | 43.42218 | 15.95362 | 30567 ft | 440 kts | 302° |
| 2026-05-06 08:27 | 43.44005 | 15.91943 | 30753 ft | 440 kts | 302° |
| 2026-05-06 08:28 | 43.45787 | 15.88529 | 30955 ft | 439 kts | 302° |
| 2026-05-06 08:28 | 43.47565 | 15.85117 | 31176 ft | 438 kts | 302° |
| 2026-05-06 08:28 | 43.49313 | 15.81758 | 31360 ft | 437 kts | 302° |
| 2026-05-06 08:28 | 43.51091 | 15.78364 | 31553 ft | 437 kts | 304° |
| 2026-05-06 08:29 | 43.53130 | 15.75232 | 31757 ft | 441 kts | 313° |
| 2026-05-06 08:29 | 43.55400 | 15.72393 | 31969 ft | 441 kts | 313° |
| 2026-05-06 08:29 | 43.57670 | 15.69554 | 32174 ft | 440 kts | 313° |
| 2026-05-06 08:29 | 43.59929 | 15.66718 | 32373 ft | 439 kts | 313° |
| 2026-05-06 08:30 | 43.62181 | 15.63882 | 32587 ft | 438 kts | 313° |
| 2026-05-06 08:30 | 43.64423 | 15.61049 | 32801 ft | 436 kts | 313° |
| 2026-05-06 08:30 | 43.66626 | 15.58263 | 33014 ft | 435 kts | 312° |
| 2026-05-06 08:30 | 43.68856 | 15.55441 | 33204 ft | 434 kts | 312° |
| 2026-05-06 08:31 | 43.71080 | 15.52622 | 33397 ft | 433 kts | 312° |
| 2026-05-06 08:31 | 43.73296 | 15.49812 | 33577 ft | 432 kts | 312° |
| 2026-05-06 08:31 | 43.75514 | 15.47006 | 33759 ft | 432 kts | 312° |
| 2026-05-06 08:31 | 43.77727 | 15.44201 | 33942 ft | 431 kts | 312° |
| 2026-05-06 08:32 | 43.82151 | 15.38580 | 34009 ft | 432 kts | 312° |
| 2026-05-06 08:32 | 43.86573 | 15.32947 | 34001 ft | 432 kts | 312° |
| 2026-05-06 08:33 | 43.90968 | 15.27343 | 34011 ft | 432 kts | 311° |
| 2026-05-06 08:33 | 43.95382 | 15.21694 | 33995 ft | 432 kts | 311° |
| 2026-05-06 08:34 | 44.02001 | 15.13223 | 34017 ft | 432 kts | 311° |
| 2026-05-06 08:35 | 44.06381 | 15.07594 | 34023 ft | 431 kts | 311° |
| 2026-05-06 08:35 | 44.10776 | 15.01931 | 34023 ft | 430 kts | 311° |
| 2026-05-06 08:36 | 44.15160 | 14.96260 | 34037 ft | 430 kts | 311° |
| 2026-05-06 08:36 | 44.19545 | 14.90592 | 34036 ft | 430 kts | 311° |
| 2026-05-06 08:37 | 44.23924 | 14.84927 | 34029 ft | 429 kts | 311° |
| 2026-05-06 08:37 | 44.28259 | 14.79285 | 34026 ft | 429 kts | 311° |
| 2026-05-06 08:38 | 44.32617 | 14.73602 | 34024 ft | 429 kts | 311° |
| 2026-05-06 08:38 | 44.36969 | 14.67915 | 34025 ft | 428 kts | 311° |
| 2026-05-06 08:39 | 44.41326 | 14.62232 | 34016 ft | 428 kts | 311° |
| 2026-05-06 08:39 | 44.45651 | 14.56585 | 34036 ft | 428 kts | 311° |
| 2026-05-06 08:40 | 44.49988 | 14.50882 | 34027 ft | 428 kts | 310° |
| 2026-05-06 08:40 | 44.54323 | 14.45168 | 34027 ft | 428 kts | 311° |
| 2026-05-06 08:41 | 44.58675 | 14.39478 | 34040 ft | 428 kts | 311° |
| 2026-05-06 08:41 | 44.63003 | 14.33835 | 34032 ft | 428 kts | 311° |
| 2026-05-06 08:42 | 44.67353 | 14.28131 | 34031 ft | 428 kts | 310° |
| 2026-05-06 08:42 | 44.71698 | 14.22423 | 34037 ft | 428 kts | 310° |
| 2026-05-06 08:43 | 44.76040 | 14.16713 | 34025 ft | 427 kts | 310° |
| 2026-05-06 08:43 | 44.80340 | 14.11022 | 34038 ft | 427 kts | 310° |
| 2026-05-06 08:44 | 44.84670 | 14.05287 | 34030 ft | 427 kts | 310° |
| 2026-05-06 08:44 | 44.88996 | 13.99555 | 34022 ft | 427 kts | 310° |
| 2026-05-06 08:45 | 44.93321 | 13.93815 | 34036 ft | 427 kts | 310° |
| 2026-05-06 08:45 | 44.97609 | 13.88108 | 34032 ft | 426 kts | 310° |
| 2026-05-06 08:46 | 45.01912 | 13.82353 | 34027 ft | 426 kts | 309° |
| 2026-05-06 08:46 | 45.06216 | 13.76590 | 34021 ft | 426 kts | 309° |
| 2026-05-06 08:47 | 45.10525 | 13.70816 | 34014 ft | 426 kts | 309° |
| 2026-05-06 08:47 | 45.14829 | 13.65034 | 34005 ft | 427 kts | 309° |
| 2026-05-06 08:48 | 45.19102 | 13.59280 | 33998 ft | 427 kts | 309° |
| 2026-05-06 08:48 | 45.23411 | 13.53460 | 34005 ft | 429 kts | 309° |
| 2026-05-06 08:49 | 45.27726 | 13.47619 | 33982 ft | 427 kts | 309° |
| 2026-05-06 08:49 | 45.32018 | 13.41803 | 33957 ft | 426 kts | 309° |
| 2026-05-06 08:50 | 45.36281 | 13.36021 | 33953 ft | 427 kts | 309° |
| 2026-05-06 08:50 | 45.40575 | 13.30180 | 33974 ft | 428 kts | 308° |
| 2026-05-06 08:51 | 45.44882 | 13.24300 | 33974 ft | 430 kts | 308° |
| 2026-05-06 08:51 | 45.49189 | 13.18405 | 33956 ft | 429 kts | 308° |
| 2026-05-06 08:52 | 45.53495 | 13.12499 | 33952 ft | 430 kts | 308° |
| 2026-05-06 08:52 | 45.57783 | 13.06616 | 33956 ft | 431 kts | 308° |
| 2026-05-06 08:53 | 45.62097 | 13.00683 | 33947 ft | 431 kts | 308° |
| 2026-05-06 08:53 | 45.66411 | 12.94729 | 33960 ft | 432 kts | 307° |
| 2026-05-06 08:54 | 45.70763 | 12.88762 | 33937 ft | 435 kts | 308° |
| 2026-05-06 08:54 | 45.75213 | 12.82925 | 33940 ft | 438 kts | 309° |
| 2026-05-06 08:55 | 45.79731 | 12.77057 | 33927 ft | 438 kts | 309° |
| 2026-05-06 08:55 | 45.84205 | 12.71185 | 33931 ft | 436 kts | 309° |
| 2026-05-06 08:56 | 45.88658 | 12.65279 | 33971 ft | 436 kts | 308° |
| 2026-05-06 08:56 | 45.93109 | 12.59348 | 33966 ft | 437 kts | 308° |
| 2026-05-06 08:57 | 45.97538 | 12.53451 | 33965 ft | 438 kts | 308° |
| 2026-05-06 08:57 | 46.02005 | 12.47492 | 33965 ft | 438 kts | 308° |
| 2026-05-06 08:58 | 46.06473 | 12.41520 | 33962 ft | 439 kts | 308° |
| 2026-05-06 08:58 | 46.10940 | 12.35545 | 33976 ft | 438 kts | 307° |
| 2026-05-06 08:59 | 46.15374 | 12.29593 | 33969 ft | 439 kts | 307° |
| 2026-05-06 08:59 | 46.19833 | 12.23578 | 33967 ft | 439 kts | 307° |
| 2026-05-06 09:00 | 46.24293 | 12.17547 | 33968 ft | 439 kts | 307° |
| 2026-05-06 09:00 | 46.28753 | 12.11515 | 33970 ft | 439 kts | 307° |
| 2026-05-06 09:01 | 46.33212 | 12.05471 | 33980 ft | 440 kts | 307° |
| 2026-05-06 09:01 | 46.37638 | 11.99460 | 33950 ft | 439 kts | 307° |
| 2026-05-06 09:02 | 46.42094 | 11.93384 | 33949 ft | 440 kts | 307° |
| 2026-05-06 09:02 | 46.46551 | 11.87297 | 33946 ft | 440 kts | 307° |
| 2026-05-06 09:03 | 46.51011 | 11.81205 | 33938 ft | 440 kts | 307° |
| 2026-05-06 09:03 | 46.55436 | 11.75138 | 33929 ft | 440 kts | 307° |
| 2026-05-06 09:04 | 46.59889 | 11.69009 | 33926 ft | 441 kts | 307° |
| 2026-05-06 09:04 | 46.64340 | 11.62873 | 33923 ft | 441 kts | 307° |
| 2026-05-06 09:05 | 46.68789 | 11.56719 | 33928 ft | 441 kts | 307° |
| 2026-05-06 09:05 | 46.73215 | 11.50596 | 33917 ft | 441 kts | 307° |
| 2026-05-06 09:06 | 46.77669 | 11.44427 | 33966 ft | 442 kts | 307° |
| 2026-05-06 09:06 | 46.82116 | 11.38233 | 33911 ft | 441 kts | 308° |
| 2026-05-06 09:07 | 46.86559 | 11.32033 | 33917 ft | 442 kts | 308° |
| 2026-05-06 09:07 | 46.90969 | 11.25860 | 33915 ft | 442 kts | 308° |
| 2026-05-06 09:08 | 46.95151 | 11.19955 | 33898 ft | 440 kts | 307° |
| 2026-05-06 09:08 | 46.99358 | 11.13474 | 33892 ft | 437 kts | 304° |
| 2026-05-06 09:09 | 47.03427 | 11.06839 | 33889 ft | 438 kts | 303° |
| 2026-05-06 09:09 | 47.07524 | 11.00197 | 33862 ft | 439 kts | 304° |
| 2026-05-06 09:10 | 47.11644 | 10.93622 | 33855 ft | 441 kts | 304° |
| 2026-05-06 09:10 | 47.15798 | 10.87022 | 33841 ft | 440 kts | 304° |
| 2026-05-06 09:11 | 47.19946 | 10.80400 | 33841 ft | 440 kts | 304° |
| 2026-05-06 09:11 | 47.24048 | 10.73794 | 33817 ft | 441 kts | 304° |
| 2026-05-06 09:12 | 47.28185 | 10.67115 | 33812 ft | 442 kts | 304° |
| 2026-05-06 09:12 | 47.32326 | 10.60425 | 33809 ft | 443 kts | 304° |
| 2026-05-06 09:13 | 47.36483 | 10.53708 | 33808 ft | 444 kts | 304° |
| 2026-05-06 09:13 | 47.40750 | 10.47159 | 33815 ft | 452 kts | 312° |
| 2026-05-06 09:14 | 47.45738 | 10.41389 | 33821 ft | 456 kts | 314° |
| 2026-05-06 09:14 | 47.50750 | 10.35643 | 33827 ft | 457 kts | 314° |
| 2026-05-06 09:15 | 47.55769 | 10.29858 | 33850 ft | 458 kts | 314° |
| 2026-05-06 09:15 | 47.60793 | 10.24051 | 33845 ft | 458 kts | 314° |
| 2026-05-06 09:16 | 47.65825 | 10.18219 | 33841 ft | 459 kts | 314° |
| 2026-05-06 09:16 | 47.70821 | 10.12410 | 33866 ft | 460 kts | 314° |
| 2026-05-06 09:17 | 47.75854 | 10.06532 | 33857 ft | 461 kts | 314° |
| 2026-05-06 09:17 | 47.80903 | 10.00632 | 33856 ft | 462 kts | 314° |
| 2026-05-06 09:18 | 47.85957 | 9.94724 | 33856 ft | 462 kts | 314° |
| 2026-05-06 09:18 | 47.90975 | 9.88838 | 33852 ft | 462 kts | 314° |
| 2026-05-06 09:19 | 47.96013 | 9.82904 | 33845 ft | 462 kts | 314° |
| 2026-05-06 09:19 | 48.01051 | 9.76952 | 33855 ft | 462 kts | 314° |
| 2026-05-06 09:20 | 48.05237 | 9.71993 | 33841 ft | 462 kts | 314° |
| 2026-05-06 09:20 | 48.10905 | 9.64807 | 33832 ft | 456 kts | 308° |
| 2026-05-06 09:21 | 48.15464 | 9.58207 | 33829 ft | 456 kts | 308° |
| 2026-05-06 09:21 | 48.19251 | 9.52712 | 33831 ft | 456 kts | 308° |
| 2026-05-06 09:22 | 48.23810 | 9.46087 | 33841 ft | 456 kts | 308° |
| 2026-05-06 09:22 | 48.28366 | 9.39447 | 33839 ft | 457 kts | 308° |
| 2026-05-06 09:23 | 48.32925 | 9.32786 | 33829 ft | 457 kts | 308° |
| 2026-05-06 09:23 | 48.37478 | 9.26110 | 33823 ft | 457 kts | 308° |
| 2026-05-06 09:24 | 48.42005 | 9.19472 | 33821 ft | 457 kts | 308° |
| 2026-05-06 09:24 | 48.46552 | 9.12785 | 33818 ft | 457 kts | 308° |
| 2026-05-06 09:25 | 48.51102 | 9.06073 | 33828 ft | 458 kts | 308° |
| 2026-05-06 09:25 | 48.55648 | 8.99329 | 33814 ft | 459 kts | 308° |
| 2026-05-06 09:26 | 48.60181 | 8.92594 | 33808 ft | 460 kts | 308° |
| 2026-05-06 09:26 | 48.64751 | 8.85803 | 33809 ft | 461 kts | 308° |
| 2026-05-06 09:27 | 48.69321 | 8.78990 | 33811 ft | 461 kts | 308° |
| 2026-05-06 09:27 | 48.73883 | 8.72164 | 33829 ft | 462 kts | 309° |
| 2026-05-06 09:28 | 48.78418 | 8.65356 | 33836 ft | 461 kts | 310° |
| 2026-05-06 09:28 | 48.82972 | 8.58500 | 33828 ft | 461 kts | 310° |
| 2026-05-06 09:29 | 48.87518 | 8.51635 | 33822 ft | 461 kts | 310° |
| 2026-05-06 09:29 | 48.92067 | 8.44778 | 33819 ft | 461 kts | 310° |
| 2026-05-06 09:30 | 48.96608 | 8.37896 | 33821 ft | 461 kts | 310° |
| 2026-05-06 09:30 | 49.01108 | 8.31042 | 33825 ft | 461 kts | 310° |
| 2026-05-06 09:31 | 49.05638 | 8.24134 | 33821 ft | 461 kts | 310° |
| 2026-05-06 09:31 | 49.10167 | 8.17208 | 33816 ft | 461 kts | 310° |
| 2026-05-06 09:32 | 49.14701 | 8.10262 | 33814 ft | 462 kts | 310° |
| 2026-05-06 09:32 | 49.19195 | 8.03350 | 33812 ft | 462 kts | 310° |
| 2026-05-06 09:33 | 49.23711 | 7.96366 | 33829 ft | 462 kts | 310° |
| 2026-05-06 09:33 | 49.28234 | 7.89370 | 33813 ft | 463 kts | 310° |
| 2026-05-06 09:34 | 49.32766 | 7.82354 | 33805 ft | 464 kts | 310° |
| 2026-05-06 09:34 | 49.37303 | 7.75302 | 33805 ft | 464 kts | 310° |
| 2026-05-06 09:35 | 49.41807 | 7.68281 | 33805 ft | 465 kts | 310° |
| 2026-05-06 09:35 | 49.46338 | 7.61199 | 33825 ft | 465 kts | 310° |
| 2026-05-06 09:36 | 49.50864 | 7.54099 | 33820 ft | 465 kts | 310° |
| 2026-05-06 09:36 | 49.55384 | 7.46999 | 33800 ft | 464 kts | 310° |
| 2026-05-06 09:37 | 49.59864 | 7.39943 | 33797 ft | 463 kts | 310° |
| 2026-05-06 09:37 | 49.64360 | 7.32832 | 33797 ft | 463 kts | 310° |
| 2026-05-06 09:38 | 49.68845 | 7.25703 | 33792 ft | 463 kts | 310° |
| 2026-05-06 09:38 | 49.73327 | 7.18572 | 33805 ft | 462 kts | 310° |
| 2026-05-06 09:39 | 49.77797 | 7.11448 | 33787 ft | 460 kts | 311° |
| 2026-05-06 09:39 | 49.82214 | 7.04389 | 33783 ft | 459 kts | 311° |
| 2026-05-06 09:40 | 49.86645 | 6.97288 | 33779 ft | 458 kts | 311° |
| 2026-05-06 09:40 | 49.93276 | 6.86625 | 33794 ft | 457 kts | 310° |
| 2026-05-06 09:41 | 49.97680 | 6.79498 | 33804 ft | 457 kts | 311° |
| 2026-05-06 09:41 | 50.02055 | 6.72409 | 33803 ft | 458 kts | 311° |
| 2026-05-06 09:42 | 50.06463 | 6.65257 | 33795 ft | 458 kts | 311° |
| 2026-05-06 09:42 | 50.10870 | 6.58088 | 33790 ft | 458 kts | 311° |
| 2026-05-06 09:43 | 50.15244 | 6.50951 | 33785 ft | 459 kts | 311° |
| 2026-05-06 09:43 | 50.19325 | 6.43372 | 33785 ft | 454 kts | 298° |
| 2026-05-06 09:44 | 50.22377 | 6.34758 | 33810 ft | 453 kts | 296° |
| 2026-05-06 09:44 | 50.25398 | 6.26142 | 33805 ft | 453 kts | 296° |
| 2026-05-06 09:45 | 50.28403 | 6.17544 | 33824 ft | 453 kts | 296° |
| 2026-05-06 09:45 | 50.31675 | 6.09109 | 33823 ft | 455 kts | 302° |
| 2026-05-06 09:46 | 50.35206 | 6.00869 | 33836 ft | 455 kts | 301° |
| 2026-05-06 09:46 | 50.38708 | 5.92631 | 33846 ft | 455 kts | 301° |
| 2026-05-06 09:47 | 50.42203 | 5.84379 | 33855 ft | 454 kts | 301° |
| 2026-05-06 09:47 | 50.45666 | 5.76184 | 33852 ft | 453 kts | 301° |
| 2026-05-06 09:48 | 50.49143 | 5.67927 | 33857 ft | 453 kts | 301° |
| 2026-05-06 09:48 | 50.52588 | 5.59642 | 33858 ft | 452 kts | 300° |
| 2026-05-06 09:49 | 50.55846 | 5.51192 | 33867 ft | 451 kts | 299° |
| 2026-05-06 09:49 | 50.58974 | 5.42720 | 33868 ft | 450 kts | 298° |
| 2026-05-06 09:50 | 50.62134 | 5.34206 | 33874 ft | 451 kts | 299° |
| 2026-05-06 09:50 | 50.65324 | 5.25716 | 33891 ft | 450 kts | 299° |
| 2026-05-06 09:51 | 50.68523 | 5.17244 | 33885 ft | 449 kts | 299° |
| 2026-05-06 09:51 | 50.71704 | 5.08767 | 33877 ft | 450 kts | 299° |
| 2026-05-06 09:52 | 50.74856 | 5.00303 | 33877 ft | 450 kts | 299° |
| 2026-05-06 09:52 | 50.78023 | 4.91761 | 33872 ft | 451 kts | 299° |
| 2026-05-06 09:53 | 50.81186 | 4.83212 | 33878 ft | 451 kts | 299° |
| 2026-05-06 09:53 | 50.84345 | 4.74647 | 33880 ft | 451 kts | 299° |
| 2026-05-06 09:54 | 50.87499 | 4.66077 | 33922 ft | 450 kts | 300° |
| 2026-05-06 09:54 | 50.90627 | 4.57569 | 33927 ft | 449 kts | 300° |
| 2026-05-06 09:55 | 50.93755 | 4.48999 | 33916 ft | 449 kts | 300° |
| 2026-05-06 09:55 | 50.96876 | 4.40428 | 33918 ft | 449 kts | 300° |
| 2026-05-06 09:56 | 50.99987 | 4.31846 | 33913 ft | 448 kts | 300° |
| 2026-05-06 09:56 | 51.03068 | 4.23319 | 33904 ft | 448 kts | 300° |
| 2026-05-06 09:57 | 51.06169 | 4.14731 | 33903 ft | 448 kts | 300° |
| 2026-05-06 09:57 | 51.09257 | 4.06125 | 33902 ft | 448 kts | 299° |
| 2026-05-06 09:58 | 51.12340 | 3.97511 | 33902 ft | 448 kts | 299° |
| 2026-05-06 09:58 | 51.15416 | 3.88893 | 33901 ft | 448 kts | 299° |
| 2026-05-06 09:59 | 51.18487 | 3.80260 | 33894 ft | 448 kts | 299° |
| 2026-05-06 09:59 | 51.21530 | 3.71658 | 33907 ft | 448 kts | 300° |
| 2026-05-06 10:00 | 51.24016 | 3.62564 | 33905 ft | 449 kts | 285° |
| 2026-05-06 10:00 | 51.25343 | 3.52820 | 33907 ft | 449 kts | 282° |
| 2026-05-06 10:01 | 51.26626 | 3.43059 | 33910 ft | 449 kts | 282° |
| 2026-05-06 10:01 | 51.27878 | 3.33510 | 33916 ft | 450 kts | 282° |
| 2026-05-06 10:02 | 51.29953 | 3.24285 | 33931 ft | 448 kts | 298° |
| 2026-05-06 10:02 | 51.32616 | 3.16356 | 33934 ft | 448 kts | 298° |
| 2026-05-06 10:03 | 51.35452 | 3.07957 | 33924 ft | 447 kts | 298° |
| 2026-05-06 10:03 | 51.38366 | 2.99273 | 33933 ft | 447 kts | 297° |
| 2026-05-06 10:04 | 51.41022 | 2.91294 | 33934 ft | 447 kts | 297° |
| 2026-05-06 10:04 | 51.43426 | 2.84056 | 33942 ft | 446 kts | 297° |
| 2026-05-06 10:05 | 51.45452 | 2.77942 | 33951 ft | 445 kts | 297° |
| 2026-05-06 10:05 | 51.48290 | 2.69345 | 33953 ft | 444 kts | 297° |
| 2026-05-06 10:06 | 51.50719 | 2.61996 | 33963 ft | 443 kts | 297° |
| 2026-05-06 10:06 | 51.53172 | 2.54540 | 33960 ft | 443 kts | 297° |
| 2026-05-06 10:07 | 51.55257 | 2.48163 | 33958 ft | 443 kts | 297° |
| 2026-05-06 10:07 | 51.57323 | 2.41828 | 33963 ft | 443 kts | 297° |
| 2026-05-06 10:08 | 51.59951 | 2.33760 | 33967 ft | 443 kts | 296° |
| 2026-05-06 10:08 | 51.62795 | 2.25010 | 33971 ft | 443 kts | 296° |
| 2026-05-06 10:09 | 51.65641 | 2.16215 | 33972 ft | 442 kts | 296° |
| 2026-05-06 10:09 | 51.68458 | 2.07476 | 33976 ft | 442 kts | 296° |
| 2026-05-06 10:10 | 51.71278 | 1.98696 | 33982 ft | 442 kts | 296° |
| 2026-05-06 10:10 | 51.74093 | 1.89881 | 33972 ft | 442 kts | 296° |
| 2026-05-06 10:11 | 51.76910 | 1.81057 | 33969 ft | 442 kts | 296° |
| 2026-05-06 10:11 | 51.79724 | 1.72212 | 33981 ft | 443 kts | 296° |
| 2026-05-06 10:12 | 51.82533 | 1.63360 | 33990 ft | 443 kts | 295° |
| 2026-05-06 10:12 | 51.85312 | 1.54561 | 33980 ft | 442 kts | 296° |
| 2026-05-06 10:13 | 51.88097 | 1.45680 | 33995 ft | 442 kts | 296° |
| 2026-05-06 10:13 | 51.90876 | 1.36809 | 33999 ft | 441 kts | 296° |
| 2026-05-06 10:14 | 51.93639 | 1.27972 | 34001 ft | 439 kts | 296° |
| 2026-05-06 10:14 | 51.96382 | 1.19137 | 34001 ft | 438 kts | 296° |
| 2026-05-06 10:15 | 51.99116 | 1.10327 | 33996 ft | 437 kts | 296° |
| 2026-05-06 10:15 | 52.01824 | 1.01572 | 33999 ft | 437 kts | 295° |
| 2026-05-06 10:16 | 52.04537 | 0.92754 | 34004 ft | 436 kts | 296° |
| 2026-05-06 10:16 | 52.07230 | 0.83943 | 33998 ft | 434 kts | 296° |
| 2026-05-06 10:17 | 52.09904 | 0.75163 | 33998 ft | 433 kts | 296° |
| 2026-05-06 10:17 | 52.12573 | 0.66391 | 33996 ft | 434 kts | 296° |
| 2026-05-06 10:18 | 52.15227 | 0.57644 | 34004 ft | 434 kts | 296° |
| 2026-05-06 10:18 | 52.17890 | 0.48839 | 34007 ft | 433 kts | 296° |
| 2026-05-06 10:19 | 52.20544 | 0.40030 | 34019 ft | 433 kts | 295° |
| 2026-05-06 10:19 | 52.23182 | 0.31231 | 34033 ft | 432 kts | 295° |
| 2026-05-06 10:20 | 52.24495 | 0.26844 | 33777 ft | 428 kts | 295° |
| 2026-05-06 10:20 | 52.25791 | 0.22496 | 33500 ft | 425 kts | 295° |
| 2026-05-06 10:20 | 52.27078 | 0.18164 | 33225 ft | 423 kts | 295° |
| 2026-05-06 10:20 | 52.28344 | 0.13897 | 32947 ft | 423 kts | 295° |
| 2026-05-06 10:21 | 52.29622 | 0.09588 | 32689 ft | 420 kts | 294° |
| 2026-05-06 10:21 | 52.30891 | 0.05309 | 32428 ft | 417 kts | 294° |
| 2026-05-06 10:21 | 52.32154 | 0.01050 | 32167 ft | 416 kts | 295° |
| 2026-05-06 10:21 | 52.33413 | -0.03196 | 31895 ft | 415 kts | 295° |
| 2026-05-06 10:22 | 52.34667 | -0.07443 | 31637 ft | 414 kts | 295° |
| 2026-05-06 10:22 | 52.35910 | -0.11672 | 31382 ft | 411 kts | 295° |
| 2026-05-06 10:22 | 52.37143 | -0.15876 | 31130 ft | 410 kts | 295° |
| 2026-05-06 10:22 | 52.38373 | -0.20076 | 30882 ft | 409 kts | 295° |
| 2026-05-06 10:23 | 52.39597 | -0.24256 | 30633 ft | 405 kts | 295° |
| 2026-05-06 10:23 | 52.40796 | -0.28348 | 30393 ft | 404 kts | 295° |
| 2026-05-06 10:23 | 52.42007 | -0.32495 | 30147 ft | 403 kts | 295° |
| 2026-05-06 10:23 | 52.43211 | -0.36635 | 29874 ft | 402 kts | 294° |
| 2026-05-06 10:24 | 52.44404 | -0.40745 | 29591 ft | 396 kts | 294° |
| 2026-05-06 10:24 | 52.45576 | -0.44788 | 29167 ft | 390 kts | 294° |
| 2026-05-06 10:24 | 52.46730 | -0.48774 | 28726 ft | 384 kts | 294° |
| 2026-05-06 10:24 | 52.47866 | -0.52704 | 28296 ft | 379 kts | 294° |
| 2026-05-06 10:25 | 52.48986 | -0.56585 | 27872 ft | 373 kts | 294° |
| 2026-05-06 10:25 | 52.50089 | -0.60411 | 27471 ft | 368 kts | 294° |
| 2026-05-06 10:25 | 52.51176 | -0.64184 | 27067 ft | 364 kts | 294° |
| 2026-05-06 10:25 | 52.52248 | -0.67912 | 26693 ft | 359 kts | 294° |
| 2026-05-06 10:26 | 52.53289 | -0.71545 | 26294 ft | 354 kts | 294° |
| 2026-05-06 10:26 | 52.54331 | -0.75185 | 25924 ft | 350 kts | 294° |
| 2026-05-06 10:26 | 52.55359 | -0.78779 | 25567 ft | 346 kts | 293° |
| 2026-05-06 10:26 | 52.56379 | -0.82349 | 25215 ft | 344 kts | 293° |
| 2026-05-06 10:27 | 52.57393 | -0.85895 | 24865 ft | 342 kts | 293° |
| 2026-05-06 10:27 | 52.58400 | -0.89427 | 24499 ft | 340 kts | 293° |
| 2026-05-06 10:27 | 52.59398 | -0.92935 | 24152 ft | 338 kts | 293° |
| 2026-05-06 10:27 | 52.60388 | -0.96425 | 23802 ft | 336 kts | 293° |
| 2026-05-06 10:28 | 52.61372 | -0.99900 | 23410 ft | 333 kts | 293° |
| 2026-05-06 10:28 | 52.62346 | -1.03347 | 23041 ft | 332 kts | 293° |
| 2026-05-06 10:28 | 52.63302 | -1.06733 | 22675 ft | 330 kts | 293° |
| 2026-05-06 10:28 | 52.64268 | -1.10152 | 22303 ft | 328 kts | 293° |
| 2026-05-06 10:29 | 52.65224 | -1.13545 | 21938 ft | 326 kts | 293° |
| 2026-05-06 10:29 | 52.66174 | -1.16929 | 21560 ft | 324 kts | 293° |
| 2026-05-06 10:29 | 52.67117 | -1.20293 | 21186 ft | 323 kts | 293° |
| 2026-05-06 10:29 | 52.68056 | -1.23639 | 20813 ft | 321 kts | 293° |
| 2026-05-06 10:30 | 52.69021 | -1.26945 | 20437 ft | 319 kts | 298° |
| 2026-05-06 10:30 | 52.70288 | -1.29937 | 20068 ft | 319 kts | 309° |
| 2026-05-06 10:30 | 52.71912 | -1.32491 | 19648 ft | 333 kts | 321° |
| 2026-05-06 10:30 | 52.73876 | -1.34620 | 19244 ft | 341 kts | 326° |
| 2026-05-06 10:31 | 52.75902 | -1.36671 | 18826 ft | 341 kts | 326° |
| 2026-05-06 10:31 | 52.77911 | -1.38712 | 18379 ft | 339 kts | 326° |
| 2026-05-06 10:31 | 52.79881 | -1.40718 | 17914 ft | 336 kts | 326° |
| 2026-05-06 10:31 | 52.81862 | -1.42740 | 17487 ft | 333 kts | 326° |
| 2026-05-06 10:32 | 52.83828 | -1.44752 | 17067 ft | 331 kts | 326° |
| 2026-05-06 10:32 | 52.85779 | -1.46752 | 16650 ft | 329 kts | 326° |
| 2026-05-06 10:32 | 52.87720 | -1.48747 | 16236 ft | 327 kts | 326° |
| 2026-05-06 10:32 | 52.89642 | -1.50725 | 15822 ft | 325 kts | 326° |
| 2026-05-06 10:33 | 52.91552 | -1.52692 | 15412 ft | 321 kts | 326° |
| 2026-05-06 10:33 | 52.93445 | -1.54641 | 15005 ft | 319 kts | 327° |
| 2026-05-06 10:33 | 52.95325 | -1.56577 | 14600 ft | 317 kts | 327° |
| 2026-05-06 10:33 | 52.97194 | -1.58503 | 14197 ft | 316 kts | 327° |
| 2026-05-06 10:34 | 52.99054 | -1.60422 | 13792 ft | 314 kts | 327° |
| 2026-05-06 10:34 | 53.00888 | -1.62319 | 13484 ft | 303 kts | 327° |
| 2026-05-06 10:34 | 53.02612 | -1.64100 | 13345 ft | 282 kts | 327° |
| 2026-05-06 10:34 | 53.04205 | -1.65746 | 13164 ft | 268 kts | 326° |
| 2026-05-06 10:35 | 53.05664 | -1.67607 | 12836 ft | 263 kts | 315° |
| 2026-05-06 10:35 | 53.06881 | -1.69843 | 12453 ft | 259 kts | 310° |
| 2026-05-06 10:35 | 53.08042 | -1.72119 | 11921 ft | 258 kts | 310° |
| 2026-05-06 10:35 | 53.09201 | -1.74374 | 11639 ft | 256 kts | 311° |
| 2026-05-06 10:36 | 53.10375 | -1.76652 | 11540 ft | 260 kts | 311° |
| 2026-05-06 10:36 | 53.11560 | -1.78950 | 11282 ft | 264 kts | 311° |
| 2026-05-06 10:36 | 53.12750 | -1.81255 | 10994 ft | 259 kts | 311° |
| 2026-05-06 10:36 | 53.13932 | -1.83544 | 10621 ft | 259 kts | 311° |
| 2026-05-06 10:37 | 53.15074 | -1.85760 | 10375 ft | 254 kts | 311° |
| 2026-05-06 10:37 | 53.16225 | -1.87997 | 10012 ft | 254 kts | 311° |
| 2026-05-06 10:37 | 53.17365 | -1.90222 | 9693 ft | 250 kts | 312° |
| 2026-05-06 10:37 | 53.18487 | -1.92416 | 9371 ft | 248 kts | 312° |
| 2026-05-06 10:38 | 53.19601 | -1.94596 | 9014 ft | 246 kts | 312° |
| 2026-05-06 10:38 | 53.20714 | -1.96770 | 8630 ft | 246 kts | 312° |
| 2026-05-06 10:38 | 53.21819 | -1.98926 | 8319 ft | 243 kts | 312° |
| 2026-05-06 10:38 | 53.22714 | -2.01310 | 8061 ft | 246 kts | 289° |
| 2026-05-06 10:39 | 53.22805 | -2.04148 | 7712 ft | 250 kts | 259° |
| 2026-05-06 10:39 | 53.22113 | -2.06791 | 7343 ft | 255 kts | 243° |
| 2026-05-06 10:39 | 53.21193 | -2.09331 | 6983 ft | 256 kts | 240° |
| 2026-05-06 10:39 | 53.20248 | -2.11837 | 6645 ft | 255 kts | 240° |
| 2026-05-06 10:40 | 53.19300 | -2.14342 | 6313 ft | 255 kts | 240° |
| 2026-05-06 10:40 | 53.18356 | -2.16832 | 5960 ft | 254 kts | 240° |
| 2026-05-06 10:40 | 53.17420 | -2.19320 | 5607 ft | 253 kts | 240° |
| 2026-05-06 10:40 | 53.16491 | -2.21808 | 5270 ft | 252 kts | 240° |
| 2026-05-06 10:41 | 53.15579 | -2.24266 | 4889 ft | 249 kts | 240° |
| 2026-05-06 10:41 | 53.14674 | -2.26726 | 4440 ft | 249 kts | 240° |
| 2026-05-06 10:41 | 53.13792 | -2.29152 | 4012 ft | 248 kts | 240° |
| 2026-05-06 10:41 | 53.12914 | -2.31615 | 3602 ft | 247 kts | 240° |
| 2026-05-06 10:42 | 53.12048 | -2.34078 | 3182 ft | 246 kts | 240° |
| 2026-05-06 10:42 | 53.11197 | -2.36538 | 3010 ft | 246 kts | 240° |
| 2026-05-06 10:42 | 53.10343 | -2.39022 | 3019 ft | 248 kts | 240° |
| 2026-05-06 10:42 | 53.09485 | -2.41512 | 3017 ft | 247 kts | 240° |
| 2026-05-06 10:43 | 53.08773 | -2.44100 | 3013 ft | 246 kts | 257° |
| 2026-05-06 10:43 | 53.08737 | -2.46903 | 3012 ft | 243 kts | 284° |
| 2026-05-06 10:43 | 53.09436 | -2.49421 | 3016 ft | 240 kts | 310° |
| 2026-05-06 10:44 | 53.12245 | -2.51841 | 3021 ft | 232 kts | 354° |
| 2026-05-06 10:44 | 53.13850 | -2.52213 | 3018 ft | 233 kts | 354° |
| 2026-05-06 10:44 | 53.15451 | -2.52591 | 3014 ft | 233 kts | 354° |
| 2026-05-06 10:44 | 53.17059 | -2.52975 | 3016 ft | 232 kts | 354° |
| 2026-05-06 10:45 | 53.18602 | -2.53349 | 3009 ft | 218 kts | 354° |
| 2026-05-06 10:45 | 53.20092 | -2.53603 | 3008 ft | 213 kts | 4° |
| 2026-05-06 10:45 | 53.21527 | -2.53173 | 3010 ft | 209 kts | 21° |
| 2026-05-06 10:45 | 53.22802 | -2.52056 | 3011 ft | 207 kts | 40° |
| 2026-05-06 10:46 | 53.23786 | -2.50393 | 3020 ft | 192 kts | 50° |
| 2026-05-06 10:46 | 53.24587 | -2.48781 | 2897 ft | 176 kts | 51° |
| 2026-05-06 10:46 | 53.25347 | -2.47223 | 2703 ft | 170 kts | 52° |
| 2026-05-06 10:46 | 53.26083 | -2.45713 | 2490 ft | 164 kts | 51° |
| 2026-05-06 10:47 | 53.26769 | -2.44305 | 2276 ft | 149 kts | 52° |
| 2026-05-06 10:47 | 53.27409 | -2.42991 | 2076 ft | 143 kts | 52° |
| 2026-05-06 10:47 | 53.28033 | -2.41708 | 1870 ft | 142 kts | 52° |
| 2026-05-06 10:47 | 53.28651 | -2.40436 | 1677 ft | 142 kts | 51° |
| 2026-05-06 10:48 | 53.29270 | -2.39162 | 1481 ft | 141 kts | 52° |
| 2026-05-06 10:48 | 53.29885 | -2.37896 | 1291 ft | 139 kts | 52° |
| 2026-05-06 10:48 | 53.30491 | -2.36649 | 1082 ft | 139 kts | 51° |
| 2026-05-06 10:48 | 53.31102 | -2.35389 | 886 ft | 140 kts | 52° |
| 2026-05-06 10:49 | 53.31719 | -2.34119 | 684 ft | 142 kts | 52° |
| 2026-05-06 10:49 | 53.32339 | -2.32836 | 512 ft | 142 kts | 52° |
| 2026-05-06 10:49 | 53.32961 | -2.31556 | 316 ft | 141 kts | 51° |
| 2026-05-06 10:49 | 53.33570 | -2.30306 | 230 ft | 129 kts | 51° |
| 2026-05-06 10:50 | 53.34028 | -2.29345 | 231 ft | 81 kts | 51° |
| 2026-05-06 10:50 | 53.34283 | -2.28819 | 227 ft | 40 kts | 51° |
| 2026-05-06 10:50 | 53.34416 | -2.28613 | 226 ft | 22 kts | 33° |
| 2026-05-06 10:50 | 53.34546 | -2.28509 | 228 ft | 20 kts | 20° |
| 2026-05-06 10:51 | 53.34634 | -2.28454 | 230 ft | 7 kts | 21° |
| 2026-05-06 10:51 | 53.34679 | -2.28424 | 232 ft | 7 kts | 24° |
| 2026-05-06 10:51 | 53.34725 | -2.28367 | 230 ft | 9 kts | 42° |
| 2026-05-06 10:51 | 53.34768 | -2.28286 | 230 ft | 9 kts | 51° |
| 2026-05-06 10:52 | 53.34808 | -2.28203 | 231 ft | 9 kts | 51° |
| 2026-05-06 10:52 | 53.34854 | -2.28107 | 229 ft | 12 kts | 51° |
| 2026-05-06 10:52 | 53.34912 | -2.27986 | 229 ft | 14 kts | 51° |
| 2026-05-06 10:52 | 53.34971 | -2.27863 | 229 ft | 14 kts | 51° |
| 2026-05-06 10:53 | 53.35036 | -2.27726 | 230 ft | 15 kts | 51° |
| 2026-05-06 10:53 | 53.35094 | -2.27604 | 233 ft | 13 kts | 50° |
| 2026-05-06 10:53 | 53.35153 | -2.27485 | 236 ft | 13 kts | 50° |
| 2026-05-06 10:53 | 53.35207 | -2.27375 | 238 ft | 12 kts | 51° |
| 2026-05-06 10:54 | 53.35256 | -2.27274 | 239 ft | 11 kts | 51° |
| 2026-05-06 10:54 | 53.35311 | -2.27199 | 242 ft | 9 kts | 21° |
| 2026-05-06 10:54 | 53.35363 | -2.27195 | 245 ft | 7 kts | 347° |
| 2026-05-06 10:54 | 53.35412 | -2.27241 | 246 ft | 10 kts | 322° |
| 2026-05-06 10:55 | 53.35476 | -2.27329 | 248 ft | 14 kts | 321° |
| 2026-05-06 10:55 | 53.35569 | -2.27452 | 245 ft | 21 kts | 321° |
| 2026-05-06 10:55 | 53.35678 | -2.27598 | 247 ft | 17 kts | 325° |
| 2026-05-06 10:55 | 53.35755 | -2.27654 | 250 ft | 10 kts | 339° |
| 2026-05-06 10:56 | 53.35812 | -2.27719 | 252 ft | 11 kts | 334° |
| 2026-05-06 10:56 | 53.35881 | -2.27729 | 255 ft | 10 kts | 0° |
| 2026-05-06 10:56 | 53.35961 | -2.27737 | 255 ft | 14 kts | 342° |
| 2026-05-06 10:56 | 53.36051 | -2.27835 | 255 ft | 17 kts | 323° |
| 2026-05-06 10:57 | 53.36151 | -2.27963 | 255 ft | 17 kts | 320° |
| 2026-05-06 10:57 | 53.36227 | -2.28086 | 255 ft | 13 kts | 315° |
| 2026-05-06 10:57 | 53.36293 | -2.28195 | 255 ft | 15 kts | 315° |
| 2026-05-06 10:57 | 53.36373 | -2.28328 | 255 ft | 18 kts | 315° |
| 2026-05-06 10:58 | 53.36430 | -2.28372 | 255 ft | 8 kts | 13° |
| 2026-05-06 10:58 | 53.36488 | -2.28335 | 255 ft | 10 kts | 37° |
| 2026-05-06 10:58 | 53.36506 | -2.28312 | 255 ft | 3 kts | 27° |
| 2026-05-06 10:58 | 53.36533 | -2.28332 | 255 ft | 6 kts | 321° |
| 2026-05-06 10:59 | 53.36545 | -2.28353 | 255 ft | 1 kts | 315° |
| 2026-05-06 10:59 | 53.36551 | -2.28363 | 255 ft | 0 kts | 314° |
| 2026-05-06 10:59 | 53.36552 | -2.28364 | 255 ft | 0 kts | 314° |